Main page
METAR-TAF:

METAR-TAF

Airports :

Split Airport

Split, Croatia

latitude: 43-32N, longitude: 016-18E, elevation: 19 m

Current weather observation

The report was made 26 minutes ago, at 04:30 UTC
Wind 6 kt from the North/Northwest
Temperature 4°C
Humidity 52%
Pressure 1021 hPa
Visibility 10 km or more
no clouds below 1500 m and no cumulonimbus

METAR: LDSP 160430Z AUTO 33006KT CAVOK 04/M05 Q1021 NOSIG

Time: 05:56 (04:56 UTC)

Forecast

The report was made 5 hours and 31 minutes ago, at 23:25 UTC
Forecast valid from 16 at 00 UTC to 17 at 00 UTC
Wind 6 kt from the North/Northwest
Visibility 10 km or more
no clouds below 1500 m and no cumulonimbus
Probability 30%
from 16 at 12 UTC to 16 at 16 UTC
Wind 8 kt from the East

TAF: LDSP 152325Z 1600/1700 34006KT CAVOK TX10/1613Z TN03/1605Z PROB30 1612/1616 09008KT

Weather observations and forecasts of more than 4000 airports (METAR and TAF reports).

The available stations are represented by yellow and red dots on the map.

Hover mouse over dot to see the name of the station.

Then click to see weather observations and forecasts.

To change the map : click on the green buttons with a black cross to zoom in, on the green button with a dash to zoom out, or on the green arrows for adjacent maps.


METAR-TAF: